Time;durP1;ratioP1;P1;durP2;ratioP2;P2;SDS_P1;SDS_P2;PMS_P1;PMS_P2;Temp;Humidity;BMP_temperature;BMP_pressure;BME280_temperature;BME280_humidity;BME280_pressure;Samples;Min_cycle;Max_cycle;Signal;HPM_P1;HPM_P2
2020/12/17 00:01:56;;;;;;;81.53;32.03;;;;;;;3.30;100.00;101446.41;5000638;28;20087;-69
2020/12/17 00:04:23;;;;;;;70.88;31.70;;;;;;;3.29;100.00;101444.63;5004322;28;20076;-68
2020/12/17 00:06:50;;;;;;;67.80;28.60;;;;;;;3.27;100.00;101445.44;5007003;28;20391;-69
2020/12/17 00:09:16;;;;;;;70.20;28.03;;;;;;;3.22;100.00;101447.97;5006047;28;20060;-68
2020/12/17 00:11:43;;;;;;;61.50;27.50;;;;;;;3.15;100.00;101451.28;5006946;28;20084;-68
2020/12/17 00:14:09;;;;;;;60.00;26.50;;;;;;;3.07;100.00;101443.25;5023451;28;20083;-69
2020/12/17 00:16:36;;;;;;;58.80;26.77;;;;;;;3.10;100.00;101445.94;5006584;28;20061;-69
2020/12/17 00:19:02;;;;;;;75.70;33.57;;;;;;;3.22;100.00;101432.28;5005819;28;20088;-69
2020/12/17 00:21:28;;;;;;;89.10;35.73;;;;;;;3.29;100.00;101430.69;5007812;28;20038;-69
2020/12/17 00:23:56;;;;;;;73.60;33.13;;;;;;;3.34;100.00;101437.75;5022535;28;20486;-69
2020/12/17 00:26:26;;;;;;;84.20;35.93;;;;;;;3.45;100.00;101437.09;5026151;28;20087;-69
2020/12/17 00:28:52;;;;;;;88.27;35.03;;;;;;;3.52;100.00;101434.66;5008707;28;20104;-69
2020/12/17 00:31:19;;;;;;;84.23;33.97;;;;;;;3.57;100.00;101438.25;5023237;28;20037;-69
2020/12/17 00:33:46;;;;;;;86.87;35.77;;;;;;;3.61;100.00;101433.94;5007101;28;20042;-69
2020/12/17 00:36:25;;;;;;;72.83;31.37;;;;;;;3.62;100.00;101427.91;5021981;22;20038;-71
2020/12/17 00:38:51;;;;;;;79.60;32.27;;;;;;;3.66;100.00;101420.13;4989276;28;20105;-69
2020/12/17 00:41:18;;;;;;;78.97;32.37;;;;;;;3.65;100.00;101422.72;4987726;28;20679;-69
2020/12/17 00:43:45;;;;;;;75.13;32.63;;;;;;;3.68;100.00;101430.63;4987191;28;20034;-69
2020/12/17 00:46:15;;;;;;;83.07;31.93;;;;;;;3.72;100.00;101432.47;4985463;28;20686;-69
2020/12/17 00:48:42;;;;;;;70.57;32.10;;;;;;;3.76;100.00;101433.38;4982689;28;20081;-69
2020/12/17 00:51:08;;;;;;;64.83;31.57;;;;;;;3.76;100.00;101431.66;5000533;28;21188;-69
2020/12/17 00:53:34;;;;;;;70.53;31.00;;;;;;;3.78;100.00;101435.16;5005339;28;20492;-69
2020/12/17 00:56:00;;;;;;;79.10;31.57;;;;;;;3.79;100.00;101428.25;4991352;28;20046;-69
2020/12/17 00:58:27;;;;;;;73.13;31.13;;;;;;;3.86;100.00;101423.13;5002679;28;20045;-69
2020/12/17 01:00:53;;;;;;;75.03;32.60;;;;;;;3.85;100.00;101423.97;4988998;28;20106;-69
2020/12/17 01:03:20;;;;;;;60.37;28.07;;;;;;;3.87;100.00;101416.19;5010442;28;20097;-69
2020/12/17 01:05:46;;;;;;;70.67;31.53;;;;;;;3.87;100.00;101401.38;4993512;28;20042;-69
2020/12/17 01:08:12;;;;;;;61.50;28.87;;;;;;;3.91;100.00;101411.03;5004657;28;20088;-69
2020/12/17 01:10:38;;;;;;;64.87;28.57;;;;;;;3.88;100.00;101405.75;4997995;28;20046;-69
2020/12/17 01:13:05;;;;;;;64.37;27.97;;;;;;;3.88;100.00;101405.75;4996171;28;20043;-69
2020/12/17 01:15:31;;;;;;;63.80;28.43;;;;;;;3.91;100.00;101415.38;4996038;28;20514;-70
2020/12/17 01:17:57;;;;;;;51.63;24.93;;;;;;;3.96;100.00;101413.75;4988130;28;20031;-69
2020/12/17 01:20:23;;;;;;;63.60;27.07;;;;;;;3.93;100.00;101411.06;4983226;28;20062;-68
2020/12/17 01:22:54;;;;;;;56.90;27.00;;;;;;;3.95;100.00;101404.13;4985959;28;20042;-68
2020/12/17 01:25:21;;;;;;;52.87;25.67;;;;;;;3.97;100.00;101410.28;4981284;28;20046;-70
2020/12/17 01:27:47;;;;;;;52.37;25.00;;;;;;;4.03;100.00;101419.94;4994022;28;20101;-68
2020/12/17 01:30:13;;;;;;;49.83;23.67;;;;;;;4.00;100.00;101418.16;4983777;28;20122;-68
2020/12/17 01:32:39;;;;;;;44.03;23.03;;;;;;;4.04;100.00;101414.78;4988529;28;20074;-68
2020/12/17 01:35:05;;;;;;;49.37;23.03;;;;;;;4.02;100.00;101403.38;4988465;28;20053;-68
2020/12/17 01:37:32;;;;;;;41.80;21.80;;;;;;;4.04;100.00;101401.69;4989032;28;20041;-67
2020/12/17 01:39:59;;;;;;;46.67;21.27;;;;;;;4.05;100.00;101402.59;4987387;28;20037;-68
2020/12/17 01:42:26;;;;;;;38.00;20.80;;;;;;;4.12;100.00;101394.88;4993242;28;20539;-68
2020/12/17 01:44:52;;;;;;;35.37;18.17;;;;;;;4.17;100.00;101389.69;4983581;28;20061;-70
2020/12/17 01:47:19;;;;;;;40.40;19.57;;;;;;;4.17;100.00;101387.09;4982357;28;20043;-70
2020/12/17 01:49:45;;;;;;;34.47;18.33;;;;;;;4.18;100.00;101384.50;4988431;28;20597;-68
2020/12/17 01:52:11;;;;;;;34.93;17.47;;;;;;;4.22;100.00;101377.59;4988116;28;20050;-71
2020/12/17 01:54:38;;;;;;;38.23;18.57;;;;;;;4.24;100.00;101379.38;4988317;28;20388;-71
2020/12/17 01:57:05;;;;;;;32.93;18.60;;;;;;;4.23;100.00;101387.19;4987056;28;20062;-69
2020/12/17 01:59:49;;;;;;;33.40;18.50;;;;;;;4.25;100.00;101372.41;5002966;28;20034;-69
2020/12/17 02:02:17;;;;;;;33.93;16.27;;;;;;;4.21;100.00;101381.06;4999203;28;20038;-69
2020/12/17 02:04:44;;;;;;;32.40;18.50;;;;;;;4.20;100.00;101379.28;5002581;28;20105;-69
2020/12/17 02:07:11;;;;;;;30.57;16.87;;;;;;;4.19;100.00;101380.13;4988863;28;20138;-69
2020/12/17 02:09:37;;;;;;;33.80;16.90;;;;;;;4.17;100.00;101364.44;4987974;28;20406;-69
2020/12/17 02:12:04;;;;;;;31.13;16.83;;;;;;;4.15;100.00;101371.38;5004513;28;20100;-69
2020/12/17 02:14:30;;;;;;;30.40;16.03;;;;;;;4.26;100.00;101373.28;4999091;28;20073;-70
2020/12/17 02:16:57;;;;;;;28.10;15.50;;;;;;;4.23;100.00;101361.03;4991770;28;20045;-68
2020/12/17 02:19:23;;;;;;;32.53;16.13;;;;;;;4.23;100.00;101367.16;4985587;28;20121;-68
2020/12/17 02:21:49;;;;;;;26.40;15.40;;;;;;;4.24;100.00;101361.06;4987598;28;20456;-68
2020/12/17 02:24:20;;;;;;;29.47;16.53;;;;;;;4.23;100.00;101358.44;4988336;28;20112;-68
2020/12/17 02:26:46;;;;;;;28.43;15.00;;;;;;;4.22;100.00;101348.84;4996902;28;20043;-68
2020/12/17 02:29:12;;;;;;;29.83;15.67;;;;;;;4.25;100.00;101351.47;4987310;28;20112;-71
2020/12/17 02:31:38;;;;;;;29.17;14.97;;;;;;;4.22;100.00;101357.56;5001747;28;20065;-71
2020/12/17 02:34:05;;;;;;;27.93;15.10;;;;;;;4.24;100.00;101352.34;4996101;28;20038;-69
2020/12/17 02:36:31;;;;;;;29.33;15.83;;;;;;;4.15;100.00;101344.34;5002728;28;20654;-70
2020/12/17 02:38:58;;;;;;;29.80;15.87;;;;;;;4.11;100.00;101334.69;4987157;28;20100;-68
2020/12/17 02:41:24;;;;;;;29.27;15.30;;;;;;;3.98;100.00;101332.72;4987036;28;20121;-70
2020/12/17 02:43:52;;;;;;;30.80;15.47;;;;;;;3.93;100.00;101335.25;4989236;28;20057;-68
2020/12/17 02:46:19;;;;;;;34.00;16.87;;;;;;;3.82;100.00;101326.34;4968234;28;20561;-68
2020/12/17 02:48:50;;;;;;;31.90;16.83;;;;;;;3.74;100.00;101330.56;5002008;28;20081;-68
2020/12/17 02:51:16;;;;;;;32.93;15.33;;;;;;;3.62;100.00;101328.63;5003386;28;20085;-69
2020/12/17 02:53:42;;;;;;;30.53;18.03;;;;;;;3.63;100.00;101323.41;5002592;28;20127;-68
2020/12/17 02:56:12;;;;;;;27.63;15.70;;;;;;;3.56;100.00;101331.09;4997366;28;20396;-70
2020/12/17 02:58:38;;;;;;;31.17;16.93;;;;;;;3.45;100.00;101338.75;4987121;28;20062;-68
2020/12/17 03:01:04;;;;;;;30.50;16.43;;;;;;;3.41;100.00;101349.09;4982596;28;20096;-70
2020/12/17 03:03:31;;;;;;;31.53;17.27;;;;;;;3.37;100.00;101354.25;4983269;28;20038;-68
2020/12/17 03:05:57;;;;;;;27.20;15.17;;;;;;;3.27;100.00;101365.34;4997075;28;20635;-70
2020/12/17 03:08:26;;;;;;;32.37;15.67;;;;;;;3.21;100.00;101369.59;4985915;28;20042;-70
2020/12/17 03:10:53;;;;;;;28.50;15.30;;;;;;;3.09;100.00;101378.03;4986904;28;20066;-70
2020/12/17 03:13:20;;;;;;;31.63;18.07;;;;;;;3.01;100.00;101383.09;4999053;28;20034;-71
2020/12/17 03:15:47;;;;;;;28.33;16.23;;;;;;;2.94;100.00;101391.63;4985979;28;20101;-70
2020/12/17 03:18:14;;;;;;;29.70;14.57;;;;;;;2.92;100.00;101387.22;4982788;28;20042;-72
2020/12/17 03:20:40;;;;;;;31.70;15.10;;;;;;;2.88;100.00;101393.22;5002131;28;20054;-71
2020/12/17 03:23:07;;;;;;;29.73;16.17;;;;;;;2.77;100.00;101391.25;4994479;28;20550;-70
2020/12/17 03:25:33;;;;;;;27.33;14.93;;;;;;;2.63;100.00;101387.44;4985613;28;20081;-70
2020/12/17 03:27:59;;;;;;;25.60;14.47;;;;;;;2.53;100.00;101388.97;5002582;28;20114;-70
2020/12/17 03:30:25;;;;;;;27.53;14.00;;;;;;;2.45;100.00;101393.13;4986873;28;20030;-70
2020/12/17 03:32:51;;;;;;;29.43;14.07;;;;;;;2.38;100.00;101392.94;4983592;28;20125;-70
2020/12/17 03:35:17;;;;;;;27.13;14.87;;;;;;;2.32;100.00;101393.66;4986260;28;20388;-70
2020/12/17 03:37:43;;;;;;;28.17;14.93;;;;;;;2.29;100.00;101390.09;5004627;28;20070;-70
2020/12/17 03:40:10;;;;;;;28.77;14.87;;;;;;;2.20;100.00;101383.81;4988001;28;20050;-69
2020/12/17 03:42:36;;;;;;;32.80;15.60;;;;;;;2.22;100.00;101383.84;4987260;28;20069;-70
2020/12/17 03:45:02;;;;;;;28.40;14.70;;;;;;;2.17;100.00;101382.84;4990761;28;20034;-70
2020/12/17 03:47:28;;;;;;;31.47;17.03;;;;;;;2.19;100.00;101379.44;5003829;28;20589;-71
2020/12/17 03:49:54;;;;;;;26.43;14.53;;;;;;;2.11;100.00;101383.59;4988421;28;20113;-70
2020/12/17 03:52:21;;;;;;;30.20;15.80;;;;;;;2.11;100.00;101382.69;4986336;28;20046;-70
2020/12/17 03:54:47;;;;;;;27.13;15.37;;;;;;;2.08;100.00;101391.31;4991496;28;20073;-70
2020/12/17 03:57:13;;;;;;;31.53;16.77;;;;;;;2.07;100.00;101380.84;4987196;28;20084;-71
2020/12/17 03:59:39;;;;;;;32.30;17.00;;;;;;;2.00;100.00;101378.91;4979804;28;20126;-71
2020/12/17 04:02:06;;;;;;;29.33;15.57;;;;;;;1.96;100.00;101383.19;4991650;28;20046;-71
2020/12/17 04:04:32;;;;;;;30.47;16.67;;;;;;;1.96;100.00;101372.75;4988089;28;20034;-70
2020/12/17 04:07:01;;;;;;;32.37;15.43;;;;;;;1.92;100.00;101369.16;4986236;28;20054;-70
2020/12/17 04:09:27;;;;;;;29.30;15.73;;;;;;;1.88;100.00;101369.06;5008417;28;20045;-70
2020/12/17 04:11:53;;;;;;;30.00;16.27;;;;;;;1.88;100.00;101364.75;4985924;28;20138;-70
2020/12/17 04:14:19;;;;;;;31.77;15.67;;;;;;;1.86;100.00;101361.22;4991106;28;20064;-70
2020/12/17 04:16:45;;;;;;;30.57;15.47;;;;;;;1.79;100.00;101364.50;4982257;28;20459;-70
2020/12/17 04:19:11;;;;;;;30.80;15.33;;;;;;;1.85;100.00;101371.56;4992615;28;20092;-70
2020/12/17 04:21:37;;;;;;;35.30;17.50;;;;;;;1.96;100.00;101364.94;4982217;28;20067;-70
2020/12/17 04:24:04;;;;;;;40.53;17.53;;;;;;;1.91;100.00;101358.72;4992715;28;20133;-70
2020/12/17 04:26:30;;;;;;;30.03;15.70;;;;;;;1.88;100.00;101358.66;5004166;28;20062;-70
2020/12/17 04:29:00;;;;;;;38.00;16.40;;;;;;;1.89;100.00;101368.22;5012566;28;20030;-70
2020/12/17 04:31:28;;;;;;;32.07;18.07;;;;;;;1.92;100.00;101368.28;5006914;28;20121;-70
2020/12/17 04:33:54;;;;;;;36.97;17.90;;;;;;;1.91;100.00;101364.81;5001006;28;20042;-70
2020/12/17 04:36:21;;;;;;;34.20;16.63;;;;;;;1.92;100.00;101363.97;4990175;28;20129;-70
2020/12/17 04:38:47;;;;;;;32.87;16.93;;;;;;;1.91;100.00;101358.72;5001690;28;20050;-71
2020/12/17 04:41:17;;;;;;;30.90;16.23;;;;;;;1.86;100.00;101353.41;4995270;28;20042;-71
2020/12/17 04:43:44;;;;;;;29.77;15.17;;;;;;;1.87;100.00;101352.56;4986926;28;20404;-70
2020/12/17 04:46:14;;;;;;;30.60;14.97;;;;;;;1.86;100.00;101348.19;4985680;28;20050;-70
2020/12/17 04:48:41;;;;;;;36.37;17.20;;;;;;;1.91;100.00;101348.28;5000217;28;20122;-70
2020/12/17 04:51:08;;;;;;;31.73;16.83;;;;;;;1.89;100.00;101352.59;4989762;28;20074;-70
2020/12/17 04:53:37;;;;;;;29.50;15.77;;;;;;;1.89;100.00;101343.03;4986881;28;20039;-70
2020/12/17 04:56:03;;;;;;;27.10;14.73;;;;;;;1.85;100.00;101341.22;5000437;28;20221;-70
2020/12/17 04:58:31;;;;;;;29.47;15.80;;;;;;;1.79;100.00;101337.56;4992104;28;20116;-70
2020/12/17 05:00:58;;;;;;;33.17;16.67;;;;;;;1.81;100.00;101326.34;4985282;28;20452;-70
2020/12/17 05:03:24;;;;;;;27.27;14.93;;;;;;;1.81;100.00;101326.34;4999900;28;20069;-70
2020/12/17 05:05:51;;;;;;;33.40;15.60;;;;;;;1.76;100.00;101334.88;4987835;28;20034;-70
2020/12/17 05:08:20;;;;;;;36.17;17.60;;;;;;;1.87;100.00;101329.09;4989550;28;20129;-70
2020/12/17 05:10:46;;;;;;;30.50;15.53;;;;;;;1.89;100.00;101322.19;5001419;28;20070;-70
2020/12/17 05:13:13;;;;;;;32.87;16.37;;;;;;;1.92;100.00;101331.81;4981482;28;20511;-70
2020/12/17 05:15:39;;;;;;;34.10;16.77;;;;;;;1.89;100.00;101330.03;4990396;28;20412;-70
2020/12/17 05:18:07;;;;;;;27.27;14.50;;;;;;;1.93;100.00;101323.16;4982599;28;20061;-70
2020/12/17 05:20:38;;;;;;;27.33;15.33;;;;;;;1.89;100.00;101317.00;4982208;28;20093;-70
2020/12/17 05:23:05;;;;;;;28.23;14.50;;;;;;;1.97;100.00;101314.59;4979261;28;20590;-70
2020/12/17 05:25:32;;;;;;;33.43;16.07;;;;;;;1.94;100.00;101314.50;4985406;28;20462;-70
2020/12/17 05:28:03;;;;;;;33.57;16.50;;;;;;;2.01;100.00;101320.75;5000563;28;20122;-70
2020/12/17 05:30:33;;;;;;;31.93;16.27;;;;;;;1.93;100.00;101312.72;5011261;28;20178;-70
2020/12/17 05:33:00;;;;;;;25.73;15.10;;;;;;;1.92;100.00;101313.56;4989429;28;20042;-70
2020/12/17 05:35:34;;;;;;;27.53;14.83;;;;;;;1.98;100.00;101305.91;4996381;28;20041;-71
2020/12/17 05:38:03;;;;;;;25.20;14.70;;;;;;;1.97;100.00;101304.16;4987200;28;20046;-70
2020/12/17 05:40:40;;;;;;;27.87;15.03;;;;;;;1.92;100.00;101306.63;4985419;28;20038;-70
2020/12/17 05:43:08;;;;;;;33.30;16.77;;;;;;;1.94;100.00;101298.88;4988624;28;20124;-70
2020/12/17 05:45:34;;;;;;;28.00;15.03;;;;;;;2.02;100.00;101296.44;4989505;28;20034;-70
2020/12/17 05:48:10;;;;;;;29.03;15.43;;;;;;;2.04;100.00;101300.88;4996270;28;20568;-70
2020/12/17 05:50:48;;;;;;;23.17;13.97;;;;;;;2.08;100.00;101305.28;4990481;28;20030;-70
2020/12/17 05:53:16;;;;;;;27.83;15.40;;;;;;;2.04;100.00;101300.88;4984752;28;20046;-70
2020/12/17 05:55:43;;;;;;;28.00;15.03;;;;;;;2.06;100.00;101290.47;4986811;28;20054;-70
2020/12/17 05:58:10;;;;;;;28.43;14.33;;;;;;;2.07;100.00;101287.91;4980502;28;20121;-70
2020/12/17 06:00:37;;;;;;;28.43;15.33;;;;;;;2.02;100.00;101299.94;4997202;28;20038;-70
2020/12/17 06:03:03;;;;;;;30.03;16.50;;;;;;;2.02;100.00;101299.03;4998990;28;20073;-70
2020/12/17 06:05:30;;;;;;;26.77;14.57;;;;;;;2.01;100.00;101298.16;5003135;28;20064;-70
2020/12/17 06:08:00;;;;;;;26.30;13.90;;;;;;;1.90;100.00;101305.72;4985768;28;20046;-70
2020/12/17 06:10:29;;;;;;;29.83;15.80;;;;;;;1.90;100.00;101297.03;4989631;28;20787;-70
2020/12/17 06:12:57;;;;;;;30.43;15.17;;;;;;;1.87;100.00;101291.75;4987922;28;20046;-69
2020/12/17 06:15:25;;;;;;;30.07;15.57;;;;;;;1.84;100.00;101287.31;4984065;28;20451;-70
2020/12/17 06:17:55;;;;;;;31.20;15.23;;;;;;;1.82;100.00;101288.13;4986036;28;20129;-69
2020/12/17 06:20:22;;;;;;;27.20;14.13;;;;;;;1.84;100.00;101307.28;5001636;28;20062;-69
2020/12/17 06:22:55;;;;;;;28.93;15.90;;;;;;;1.80;100.00;101287.22;4985979;28;20161;-69
2020/12/17 06:25:26;;;;;;;29.47;15.80;;;;;;;1.82;100.00;101294.22;4984732;28;20148;-69
2020/12/17 06:27:53;;;;;;;31.70;15.97;;;;;;;1.84;100.00;101296.88;5002127;28;20133;-69
2020/12/17 06:30:25;;;;;;;30.63;15.20;;;;;;;1.82;100.00;101301.16;4978377;28;20034;-69
2020/12/17 06:32:54;;;;;;;32.60;16.23;;;;;;;1.87;100.00;101292.63;4982206;28;20073;-69
2020/12/17 06:35:26;;;;;;;29.53;15.97;;;;;;;1.82;100.00;101293.34;5001375;28;20126;-69
2020/12/17 06:37:55;;;;;;;31.40;16.13;;;;;;;1.75;100.00;101301.84;5005346;23;20130;-73
2020/12/17 06:40:35;;;;;;;30.20;14.93;;;;;;;1.72;100.00;101301.78;4997253;28;20064;-71
2020/12/17 06:43:01;;;;;;;31.37;16.23;;;;;;;1.74;100.00;101295.75;5007362;28;20077;-75
2020/12/17 06:45:32;;;;;;;30.13;15.37;;;;;;;1.81;100.00;101288.97;5007545;28;20578;-71
2020/12/17 06:47:59;;;;;;;31.00;16.17;;;;;;;1.76;100.00;101295.78;5007631;28;20056;-70
2020/12/17 06:50:28;;;;;;;29.63;15.17;;;;;;;1.68;100.00;101296.50;4997818;28;20741;-72
2020/12/17 06:53:04;;;;;;;33.10;16.60;;;;;;;1.78;100.00;101307.16;5009127;28;20041;-70
2020/12/17 06:55:50;;;;;;;31.77;16.57;;;;;;;1.78;100.00;101289.81;5012173;28;20121;-69
2020/12/17 06:58:21;;;;;;;29.43;14.70;;;;;;;1.69;100.00;101292.19;5017364;28;20038;-72
2020/12/17 07:00:48;;;;;;;30.17;15.33;;;;;;;1.65;100.00;101298.13;4987722;28;20125;-69
2020/12/17 07:03:46;;;;;;;31.87;17.60;;;;;;;1.61;100.00;101289.38;5008690;28;20042;-69
2020/12/17 07:06:24;;;;;;;29.77;16.07;;;;;;;1.68;100.00;101286.09;5004195;28;20062;-69
2020/12/17 07:08:53;;;;;;;33.00;16.73;;;;;;;1.62;100.00;101280.72;5005597;28;20037;-71
2020/12/17 07:11:35;;;;;;;30.00;14.87;;;;;;;1.60;100.00;101292.81;5017410;28;20041;-69
2020/12/17 07:14:03;;;;;;;28.27;14.40;;;;;;;1.66;100.00;101285.13;5010233;28;20096;-69
2020/12/17 07:16:30;;;;;;;29.40;15.80;;;;;;;1.73;100.00;101285.31;5015381;28;20619;-69
2020/12/17 07:19:18;;;;;;;34.27;17.60;;;;;;;1.76;100.00;101286.25;4991774;28;20041;-70
2020/12/17 07:21:44;;;;;;;34.37;16.33;;;;;;;1.81;100.00;101288.97;4984518;28;20065;-69
2020/12/17 07:24:25;;;;;;;32.17;16.17;;;;;;;1.88;100.00;101293.50;5023197;28;20052;-72
2020/12/17 07:26:52;;;;;;;30.57;16.43;;;;;;;1.97;100.00;101292.00;5003220;28;20066;-72
2020/12/17 07:29:27;;;;;;;29.90;15.90;;;;;;;2.04;100.00;101294.78;4991358;28;20672;-69
2020/12/17 07:31:53;;;;;;;26.23;16.00;;;;;;;2.11;100.00;101294.97;5008769;28;20072;-70
2020/12/17 07:34:19;;;;;;;30.40;15.93;;;;;;;2.15;100.00;101299.38;5008051;28;20578;-70
2020/12/17 07:36:47;;;;;;;26.93;14.07;;;;;;;2.21;100.00;101299.53;5008717;28;20116;-69
2020/12/17 07:39:14;;;;;;;30.33;15.00;;;;;;;2.25;100.00;101305.69;4995938;28;20035;-70
2020/12/17 07:41:40;;;;;;;27.13;13.87;;;;;;;2.30;100.00;101316.25;4972852;28;20042;-71
2020/12/17 07:44:07;;;;;;;26.27;14.73;;;;;;;2.34;100.00;101305.03;4973679;28;20116;-70
2020/12/17 07:46:41;;;;;;;28.53;15.27;;;;;;;2.38;100.00;101302.53;5007870;28;20587;-69
2020/12/17 07:49:28;;;;;;;32.07;16.03;;;;;;;2.48;100.00;101319.28;5007268;28;20038;-69
2020/12/17 07:51:54;;;;;;;27.47;15.03;;;;;;;2.56;100.00;101322.06;5016835;28;20045;-73
2020/12/17 07:54:21;;;;;;;23.63;14.07;;;;;;;2.61;100.00;101326.53;5024562;28;20038;-73
2020/12/17 07:56:48;;;;;;;28.40;16.03;;;;;;;2.70;100.00;101334.56;5019924;28;20038;-71
2020/12/17 07:59:16;;;;;;;26.37;14.73;;;;;;;2.78;100.00;101339.97;5015053;28;20042;-70
2020/12/17 08:01:42;;;;;;;28.37;15.60;;;;;;;2.82;100.00;101326.13;5012563;28;20049;-70
2020/12/17 08:04:10;;;;;;;24.40;14.50;;;;;;;2.89;100.00;101328.03;5005647;28;20041;-69
2020/12/17 08:06:36;;;;;;;25.47;14.23;;;;;;;2.97;100.00;101313.41;5015167;28;20129;-71
2020/12/17 08:09:03;;;;;;;26.83;14.17;;;;;;;3.00;100.00;101312.56;5000536;28;20587;-69
2020/12/17 08:11:54;;;;;;;27.97;15.13;;;;;;;3.07;100.00;101304.91;5012042;28;20065;-69
2020/12/17 08:14:22;;;;;;;22.73;12.60;;;;;;;3.04;100.00;101307.47;5015711;28;20091;-70
2020/12/17 08:16:49;;;;;;;24.00;13.50;;;;;;;3.07;100.00;101317.09;5005476;28;20049;-70
2020/12/17 08:19:15;;;;;;;24.80;13.03;;;;;;;3.09;100.00;101317.97;4993956;28;20065;-69
2020/12/17 08:21:41;;;;;;;24.17;13.80;;;;;;;3.16;100.00;101299.00;5011724;28;20096;-69
2020/12/17 08:24:10;;;;;;;24.90;13.53;;;;;;;3.12;100.00;101299.78;5008324;28;20494;-69
2020/12/17 08:26:37;;;;;;;21.47;13.03;;;;;;;3.13;99.93;101306.78;4999598;28;20061;-70
2020/12/17 08:29:03;;;;;;;24.57;13.63;;;;;;;3.25;98.70;101299.16;5012099;28;20038;-72
2020/12/17 08:31:29;;;;;;;25.37;12.60;;;;;;;3.20;98.97;101295.59;5025794;28;20494;-72
2020/12/17 08:33:57;;;;;;;26.97;13.67;;;;;;;3.22;98.54;101306.06;5010186;28;20034;-69
2020/12/17 08:36:25;;;;;;;24.33;12.60;;;;;;;3.28;99.14;101307.06;5010635;28;20102;-70
2020/12/17 08:38:53;;;;;;;27.37;14.40;;;;;;;3.23;99.04;101311.31;5012094;28;20478;-73
2020/12/17 08:41:22;;;;;;;23.53;12.17;;;;;;;3.25;99.26;101298.28;4995600;28;20045;-71
2020/12/17 08:43:49;;;;;;;24.67;12.47;;;;;;;3.30;98.15;101307.97;5002362;28;20133;-70
2020/12/17 08:46:17;;;;;;;24.40;12.23;;;;;;;3.36;97.93;101302.88;5004426;28;20149;-69
2020/12/17 08:48:44;;;;;;;24.63;12.73;;;;;;;3.38;97.45;101302.91;4994280;28;20046;-71
2020/12/17 08:51:12;;;;;;;24.27;12.70;;;;;;;3.35;96.98;101306.31;5010539;28;20513;-72
2020/12/17 08:53:43;;;;;;;28.43;13.13;;;;;;;3.45;96.62;101314.31;4993502;28;20046;-71
2020/12/17 08:56:14;;;;;;;21.90;13.03;;;;;;;3.49;96.45;101314.44;5010563;28;20042;-69
2020/12/17 08:58:43;;;;;;;24.00;12.03;;;;;;;3.45;96.28;101320.47;5023242;28;20092;-74
2020/12/17 09:01:17;;;;;;;26.73;13.83;;;;;;;3.43;97.63;101336.94;5011030;28;20045;-73
2020/12/17 09:03:44;;;;;;;22.95;11.55;;;;;;;3.39;97.42;101318.59;5004479;28;20039;-69
2020/12/17 09:06:10;;;;;;;22.47;12.70;;;;;;;3.42;97.66;101317.78;5010722;28;20054;-69
2020/12/17 09:08:37;;;;;;;24.67;13.60;;;;;;;3.49;97.48;101329.22;4990761;28;20126;-73
2020/12/17 09:11:03;;;;;;;22.83;12.57;;;;;;;3.47;97.43;101328.31;5010081;28;20151;-72
2020/12/17 09:13:29;;;;;;;22.57;13.03;;;;;;;3.49;97.15;101326.63;4993183;28;20063;-69
2020/12/17 09:15:58;;;;;;;27.13;12.60;;;;;;;3.55;96.29;101322.38;5007585;28;20518;-70
2020/12/17 09:18:28;;;;;;;24.03;12.47;;;;;;;3.59;96.22;101318.97;4993196;28;20049;-69
2020/12/17 09:21:11;;;;;;;22.40;11.90;;;;;;;3.61;96.34;101322.47;4994351;28;20030;-69
2020/12/17 09:23:38;;;;;;;21.57;11.80;;;;;;;3.66;95.94;101309.50;5010443;28;20142;-74
2020/12/17 09:26:11;;;;;;;23.37;12.53;;;;;;;3.65;96.19;101310.38;5015253;28;20513;-70
2020/12/17 09:28:41;;;;;;;24.43;12.47;;;;;;;3.71;96.21;101301.78;5029889;28;20120;-69
2020/12/17 09:31:21;;;;;;;21.63;12.03;;;;;;;3.75;95.82;101312.28;4998007;28;20568;-73
2020/12/17 09:33:47;;;;;;;20.53;12.07;;;;;;;3.75;95.10;101290.50;5009996;28;20121;-69
2020/12/17 09:36:15;;;;;;;23.73;12.37;;;;;;;3.77;94.56;101307.97;4993094;28;20633;-70
2020/12/17 09:38:41;;;;;;;23.17;12.17;;;;;;;3.83;94.39;101308.06;5009407;28;20087;-72
2020/12/17 09:41:07;;;;;;;20.70;12.30;;;;;;;3.86;94.32;101305.50;4995310;28;20133;-72
2020/12/17 09:43:33;;;;;;;23.10;12.27;;;;;;;3.87;94.10;101311.63;5021906;28;20115;-71
2020/12/17 09:45:59;;;;;;;21.67;12.87;;;;;;;3.91;93.84;101311.69;5009051;28;20053;-71
2020/12/17 09:48:28;;;;;;;20.70;12.03;;;;;;;3.97;94.14;101308.31;4992294;28;20062;-72
2020/12/17 09:51:02;;;;;;;22.60;12.30;;;;;;;4.02;93.34;101306.66;5009908;28;20057;-69
2020/12/17 09:53:29;;;;;;;22.85;12.27;;;;;;;4.05;93.84;101308.44;5015973;28;20037;-69
2020/12/17 09:55:55;;;;;;;21.77;12.63;;;;;;;4.08;92.64;101300.66;5013785;28;20539;-71
2020/12/17 09:58:22;;;;;;;20.80;12.37;;;;;;;4.12;92.82;101305.06;5008460;28;20357;-72
2020/12/17 10:00:48;;;;;;;22.07;12.30;;;;;;;4.14;92.14;101301.63;4993263;28;20065;-70
2020/12/17 10:03:14;;;;;;;24.93;12.60;;;;;;;4.22;92.24;101289.56;5010068;28;20070;-70
2020/12/17 10:05:40;;;;;;;22.17;12.83;;;;;;;4.37;90.72;101285.38;4994283;28;20125;-70
2020/12/17 10:08:07;;;;;;;22.30;11.67;;;;;;;4.47;90.67;101292.53;5007286;28;20128;-69
2020/12/17 10:10:34;;;;;;;23.13;13.10;;;;;;;4.56;90.89;101284.81;4989600;28;20042;-71
2020/12/17 10:13:01;;;;;;;28.07;14.50;;;;;;;4.66;89.88;101278.84;4992701;28;20073;-70
2020/12/17 10:15:28;;;;;;;24.10;14.13;;;;;;;4.68;89.76;101282.34;5022302;28;20445;-69
2020/12/17 10:17:55;;;;;;;19.60;11.47;;;;;;;4.77;89.81;101279.84;5009633;28;20042;-70
2020/12/17 10:20:22;;;;;;;20.90;11.97;;;;;;;4.80;88.77;101263.34;4992221;28;20122;-71
2020/12/17 10:22:49;;;;;;;20.60;11.50;;;;;;;4.81;88.51;101257.22;5010585;28;20045;-71
2020/12/17 10:25:16;;;;;;;20.27;11.57;;;;;;;4.89;88.44;101255.59;5004840;28;20041;-69
2020/12/17 10:27:42;;;;;;;20.23;11.53;;;;;;;4.94;88.49;101261.75;5025936;28;20402;-71
2020/12/17 10:30:09;;;;;;;24.63;11.67;;;;;;;4.93;87.80;101257.38;5009336;28;20042;-69
2020/12/17 10:32:37;;;;;;;19.37;11.30;;;;;;;5.00;87.24;101256.59;5007812;28;20080;-70
2020/12/17 10:35:05;;;;;;;20.20;11.10;;;;;;;4.94;87.05;101250.38;5009189;28;20120;-69
2020/12/17 10:37:31;;;;;;;23.07;12.50;;;;;;;4.91;86.99;101243.38;5022291;28;20128;-69
2020/12/17 10:39:57;;;;;;;21.67;11.50;;;;;;;5.00;86.42;101247.84;5010576;28;20068;-70
2020/12/17 10:42:23;;;;;;;19.60;11.00;;;;;;;5.10;86.75;101260.19;5016730;28;20442;-72
2020/12/17 10:44:50;;;;;;;20.50;11.43;;;;;;;5.16;86.68;101246.28;5010483;28;20092;-69
2020/12/17 10:47:16;;;;;;;23.73;12.10;;;;;;;5.30;86.89;101245.59;5017745;28;20069;-70
2020/12/17 10:49:42;;;;;;;22.43;13.60;;;;;;;5.33;85.26;101249.97;5008189;28;20038;-73
2020/12/17 10:52:09;;;;;;;15.73;10.33;;;;;;;5.45;85.32;101244.84;5008494;28;20048;-70
2020/12/17 10:54:36;;;;;;;18.97;11.60;;;;;;;5.46;86.03;101243.97;5003827;28;20539;-70
2020/12/17 10:57:02;;;;;;;22.63;11.87;;;;;;;5.64;84.30;101248.53;5008891;28;20069;-70
2020/12/17 10:59:28;;;;;;;20.60;10.80;;;;;;;5.83;83.88;101245.19;5017377;28;20030;-69
2020/12/17 11:01:55;;;;;;;20.07;11.43;;;;;;;6.00;83.20;101234.00;4996883;28;20038;-69
2020/12/17 11:04:22;;;;;;;21.80;11.93;;;;;;;5.78;82.39;101230.28;5005552;28;20109;-71
2020/12/17 11:06:48;;;;;;;17.40;11.40;;;;;;;6.01;82.10;101239.25;5007088;28;20129;-70
2020/12/17 11:09:14;;;;;;;18.83;11.90;;;;;;;6.13;80.99;101243.69;5002047;28;20038;-70
2020/12/17 11:11:40;;;;;;;16.33;10.27;;;;;;;6.16;81.03;101228.88;4991782;28;20100;-70
2020/12/17 11:14:06;;;;;;;19.80;11.60;;;;;;;6.50;79.48;101221.19;5007513;28;20065;-70
2020/12/17 11:16:32;;;;;;;20.13;12.33;;;;;;;6.60;79.38;101206.34;5008221;28;20473;-69